Time;durP1;ratioP1;P1;durP2;ratioP2;P2;SDS_P1;SDS_P2;PMS_P1;PMS_P2;Temp;Humidity;BMP_temperature;BMP_pressure;BME280_temperature;BME280_humidity;BME280_pressure;Samples;Min_cycle;Max_cycle;Signal;HPM_P1;HPM_P2
2021/04/03 00:00:23;;;;;;;96.60;59.55;;;;;;;3.66;70.49;98661.03;113848;1199;64384;-84
2021/04/03 00:03:12;;;;;;;93.63;60.50;;;;;;;3.64;70.50;98658.48;113818;1199;65303;-86
2021/04/03 00:05:39;;;;;;;93.90;59.85;;;;;;;3.59;70.56;98657.83;113840;1199;64375;-84
2021/04/03 00:08:07;;;;;;;89.53;58.17;;;;;;;3.54;70.59;98654.53;113844;1199;64506;-86
2021/04/03 00:10:34;;;;;;;87.63;57.17;;;;;;;3.51;70.69;98659.95;113862;1199;64385;-84
2021/04/03 00:13:01;;;;;;;90.23;56.50;;;;;;;3.44;70.63;98663.76;113903;1199;64461;-85
2021/04/03 00:15:28;;;;;;;81.25;52.10;;;;;;;3.40;71.13;98660.41;113869;1200;64381;-86
2021/04/03 00:17:55;;;;;;;81.13;51.13;;;;;;;3.35;71.38;98651.85;113790;1199;64431;-85
2021/04/03 00:20:24;;;;;;;75.63;47.83;;;;;;;3.33;71.14;98652.84;113851;1199;64478;-85
2021/04/03 00:22:51;;;;;;;78.97;49.60;;;;;;;3.28;71.13;98660.93;113781;1199;64363;-86
2021/04/03 00:25:18;;;;;;;77.83;50.70;;;;;;;3.21;71.29;98652.45;113861;1199;64410;-85
2021/04/03 00:27:45;;;;;;;85.23;53.93;;;;;;;3.18;71.55;98665.72;113847;1199;64431;-86
2021/04/03 00:30:20;;;;;;;91.13;59.43;;;;;;;3.17;71.61;98661.39;113790;1200;64583;-84
2021/04/03 00:32:46;;;;;;;92.00;61.45;;;;;;;3.16;71.65;98662.32;113840;1199;64477;-85
2021/04/03 00:35:17;;;;;;;95.25;62.75;;;;;;;3.15;71.83;98649.20;113839;1199;64307;-86
2021/04/03 00:37:44;;;;;;;92.97;61.20;;;;;;;3.12;71.76;98655.45;113856;1199;64362;-86
2021/04/03 00:40:22;;;;;;;88.65;57.90;;;;;;;3.10;71.96;98654.66;113829;1200;64320;-85
2021/04/03 00:42:49;;;;;;;91.53;56.87;;;;;;;3.11;71.99;98648.49;113806;1199;64509;-85
2021/04/03 00:45:18;;;;;;;81.80;53.30;;;;;;;3.13;72.01;98651.04;113776;1199;64416;-85
2021/04/03 00:47:45;;;;;;;76.70;48.40;;;;;;;3.14;72.02;98648.36;113818;1199;64512;-85
2021/04/03 00:50:14;;;;;;;80.77;47.50;;;;;;;3.19;72.30;98648.17;113896;1200;64467;-85
2021/04/03 00:52:41;;;;;;;77.40;45.90;;;;;;;3.26;72.31;98637.28;113854;1198;64429;-85
2021/04/03 00:55:09;;;;;;;76.43;46.17;;;;;;;3.31;72.16;98637.09;113765;1200;64385;-86
2021/04/03 00:57:37;;;;;;;75.63;48.37;;;;;;;3.38;72.34;98640.33;113907;1199;64451;-86
2021/04/03 01:00:06;;;;;;;85.70;51.80;;;;;;;3.43;72.17;98630.45;113876;1200;64465;-85
2021/04/03 01:02:33;;;;;;;81.75;48.00;;;;;;;3.46;72.10;98638.21;113905;1200;64320;-86
2021/04/03 01:05:01;;;;;;;79.10;46.00;;;;;;;3.44;72.07;98638.27;113822;1200;64387;-87
2021/04/03 01:07:27;;;;;;;77.43;46.10;;;;;;;3.43;72.16;98636.56;113787;1199;64381;-86
2021/04/03 01:09:54;;;;;;;74.60;49.67;;;;;;;3.46;72.23;98630.31;113712;1199;64384;-86
2021/04/03 01:12:51;;;;;;;74.60;49.80;;;;;;;3.47;72.19;98627.59;113741;1200;64426;-86
2021/04/03 01:15:44;;;;;;;71.50;43.00;;;;;;;3.49;72.15;98624.90;113831;1200;64380;-86
2021/04/03 01:18:23;;;;;;;67.00;39.50;;;;;;;3.54;72.21;98622.92;113784;1200;64375;-85
2021/04/03 01:21:13;;;;;;;59.85;37.95;;;;;;;3.62;72.12;98619.95;113753;1200;64318;-86
2021/04/03 01:24:01;;;;;;;61.07;38.90;;;;;;;3.70;72.12;98617.81;113868;1199;64369;-86
2021/04/03 01:27:03;;;;;;;62.70;38.10;;;;;;;3.74;72.14;98616.77;113845;1200;64362;-86
2021/04/03 01:29:46;;;;;;;59.90;37.45;;;;;;;3.78;72.19;98609.56;113538;1202;64486;-85
2021/04/03 01:32:16;;;;;;;67.20;40.00;;;;;;;3.78;72.13;98610.41;113748;1200;64359;-85
2021/04/03 01:34:45;;;;;;;65.60;41.95;;;;;;;3.80;71.91;98618.27;113846;1200;64512;-85
2021/04/03 01:37:17;;;;;;;63.00;39.40;;;;;;;3.78;72.07;98618.32;113828;1199;64394;-84
2021/04/03 01:39:47;;;;;;;65.23;39.20;;;;;;;3.78;71.93;98617.48;113817;1199;64445;-85
2021/04/03 01:42:19;;;;;;;68.17;41.13;;;;;;;3.79;72.04;98622.69;113844;1200;64336;-85
2021/04/03 01:44:50;;;;;;;63.27;38.20;;;;;;;3.82;72.20;98611.13;113883;1200;64362;-85
2021/04/03 01:47:27;;;;;;;60.07;36.17;;;;;;;3.86;72.16;98617.98;113757;1200;64467;-85
2021/04/03 01:49:56;;;;;;;54.60;34.90;;;;;;;3.90;72.17;98615.14;113765;1200;64631;-85
2021/04/03 01:52:32;;;;;;;65.45;38.20;;;;;;;3.94;72.29;98626.39;113795;1200;64497;-85
2021/04/03 01:55:04;;;;;;;65.15;37.55;;;;;;;3.96;72.24;98619.27;113767;1199;64429;-85
2021/04/03 01:57:34;;;;;;;61.30;36.67;;;;;;;3.99;72.52;98615.64;113820;1199;64496;-87
2021/04/03 02:00:25;;;;;;;65.60;39.83;;;;;;;4.01;72.50;98609.37;113898;1199;64465;-87
2021/04/03 02:02:53;;;;;;;63.60;38.50;;;;;;;4.01;72.66;98613.79;113894;1199;64497;-87
2021/04/03 02:05:21;;;;;;;68.00;39.20;;;;;;;3.98;72.69;98609.52;113815;1199;64423;-87
2021/04/03 02:07:49;;;;;;;63.20;38.75;;;;;;;3.94;72.63;98603.51;113832;1199;64388;-87
2021/04/03 02:10:20;;;;;;;59.25;37.45;;;;;;;3.89;73.03;98609.92;113864;1199;64410;-87
2021/04/03 02:12:48;;;;;;;61.47;39.00;;;;;;;3.85;72.96;98598.67;113886;1199;64480;-87
2021/04/03 02:15:16;;;;;;;65.90;38.50;;;;;;;3.80;72.99;98592.76;113916;1199;64455;-86
2021/04/03 02:17:47;;;;;;;58.67;36.63;;;;;;;3.75;73.05;98594.75;113898;1200;64342;-88
2021/04/03 02:20:14;;;;;;;58.60;37.80;;;;;;;3.73;73.27;98593.95;113850;1200;64365;-85
2021/04/03 02:22:42;;;;;;;61.17;37.53;;;;;;;3.70;73.27;98592.31;113781;1199;64998;-86
2021/04/03 02:25:11;;;;;;;58.37;36.40;;;;;;;3.68;73.61;98593.31;113792;1200;64505;-85
2021/04/03 02:27:39;;;;;;;64.13;37.73;;;;;;;3.64;73.49;98600.51;113814;1199;64423;-85
2021/04/03 02:30:12;;;;;;;58.90;36.60;;;;;;;3.61;73.64;98602.44;113882;1200;64458;-86
2021/04/03 02:32:40;;;;;;;57.90;36.40;;;;;;;3.57;73.82;98604.33;113881;1200;64449;-85
2021/04/03 02:35:08;;;;;;;57.80;37.27;;;;;;;3.51;73.76;98596.72;113841;1199;64365;-85
2021/04/03 02:37:35;;;;;;;60.85;36.60;;;;;;;3.44;73.76;98601.39;113819;1200;64595;-85
2021/04/03 02:40:05;;;;;;;60.05;38.35;;;;;;;3.38;73.94;98599.03;113791;1199;64413;-85
2021/04/03 02:42:37;;;;;;;57.47;37.27;;;;;;;3.35;74.06;98593.05;114112;1199;64387;-85
2021/04/03 02:45:09;;;;;;;65.45;37.75;;;;;;;3.29;74.08;98600.30;113846;1199;64314;-86
2021/04/03 02:47:44;;;;;;;59.10;37.20;;;;;;;3.29;74.53;98588.89;113849;1199;64314;-85
2021/04/03 02:50:15;;;;;;;56.97;35.53;;;;;;;3.29;74.50;98584.50;113850;1200;64455;-86
2021/04/03 02:52:48;;;;;;;59.30;38.40;;;;;;;3.28;74.67;98589.83;113962;1200;64385;-86
2021/04/03 02:55:17;;;;;;;68.60;40.13;;;;;;;3.29;74.72;98595.03;113932;1199;64430;-85
2021/04/03 02:57:46;;;;;;;59.80;38.40;;;;;;;3.30;74.65;98595.89;114116;1200;64365;-85
2021/04/03 03:00:15;;;;;;;64.57;37.43;;;;;;;3.27;74.58;98591.61;113980;1199;64311;-86
2021/04/03 03:02:42;;;;;;;57.10;37.03;;;;;;;3.27;74.64;98596.02;113955;1199;64535;-86
2021/04/03 03:05:10;;;;;;;64.83;37.80;;;;;;;3.27;74.92;98599.51;113993;1200;64477;-86
2021/04/03 03:07:40;;;;;;;59.77;36.77;;;;;;;3.28;74.83;98603.84;113987;1199;64375;-88
2021/04/03 03:10:08;;;;;;;60.73;40.97;;;;;;;3.31;74.80;98600.22;114149;1199;64380;-87
2021/04/03 03:12:37;;;;;;;58.70;37.33;;;;;;;3.34;74.82;98599.23;114050;1200;64464;-86
2021/04/03 03:15:05;;;;;;;58.60;39.40;;;;;;;3.40;74.85;98598.98;114025;1200;64247;-86
2021/04/03 03:17:32;;;;;;;59.77;37.37;;;;;;;3.44;74.91;98596.12;114056;1199;64359;-88
2021/04/03 03:20:01;;;;;;;57.50;37.60;;;;;;;3.48;74.88;98602.97;114145;1200;64403;-87
2021/04/03 03:22:28;;;;;;;52.27;34.73;;;;;;;3.52;75.06;98604.53;114182;1199;64430;-88
2021/04/03 03:24:56;;;;;;;49.37;32.83;;;;;;;3.54;75.24;98595.73;114046;1200;64417;-88
2021/04/03 03:27:25;;;;;;;52.03;34.63;;;;;;;3.58;75.27;98602.55;114071;1200;64480;-88
2021/04/03 03:29:53;;;;;;;45.97;30.00;;;;;;;3.61;75.44;98600.66;114218;1199;64458;-88
2021/04/03 03:32:20;;;;;;;53.00;32.20;;;;;;;3.64;75.41;98597.88;114139;1200;64266;-88
2021/04/03 03:34:46;;;;;;;48.90;30.87;;;;;;;3.69;75.32;98585.34;114248;1199;64400;-88
2021/04/03 03:37:15;;;;;;;53.65;31.45;;;;;;;3.73;75.67;98591.32;114188;1200;64423;-88
2021/04/03 03:39:42;;;;;;;49.10;30.15;;;;;;;3.77;75.47;98590.27;114593;1199;64366;-87
2021/04/03 03:42:10;;;;;;;56.40;36.00;;;;;;;3.77;75.36;98586.78;114141;1199;64516;-85
2021/04/03 03:44:37;;;;;;;55.00;38.20;;;;;;;3.74;75.59;98590.41;114027;1200;64403;-86
2021/04/03 03:47:04;;;;;;;51.67;33.90;;;;;;;3.68;75.79;98583.62;114032;1199;64388;-85
2021/04/03 03:49:31;;;;;;;49.30;32.50;;;;;;;3.61;75.48;98576.94;114145;1199;64449;-85
2021/04/03 03:51:57;;;;;;;46.67;31.73;;;;;;;3.54;75.41;98579.92;114207;1200;64496;-85
2021/04/03 03:54:24;;;;;;;44.95;31.10;;;;;;;3.48;75.58;98588.95;114318;1199;64378;-85
2021/04/03 03:56:50;;;;;;;46.30;29.97;;;;;;;3.42;75.58;98578.67;114531;1200;64390;-85
2021/04/03 03:59:17;;;;;;;45.40;30.20;;;;;;;3.37;75.76;98583.28;114290;1199;64394;-85
2021/04/03 04:01:44;;;;;;;49.13;32.10;;;;;;;3.32;75.77;98577.36;114317;1199;64455;-86
2021/04/03 04:04:10;;;;;;;48.20;30.95;;;;;;;3.26;75.80;98570.59;114393;1199;64432;-86
2021/04/03 04:06:37;;;;;;;48.60;31.10;;;;;;;3.22;75.76;98569.89;114208;1199;64474;-86
2021/04/03 04:09:05;;;;;;;43.37;29.57;;;;;;;3.17;76.14;98574.50;114202;1200;64384;-86
2021/04/03 04:11:33;;;;;;;43.83;29.83;;;;;;;3.13;75.92;98572.91;114146;1199;64327;-86
2021/04/03 04:13:59;;;;;;;44.70;29.43;;;;;;;3.11;76.25;98574.77;114142;1199;64468;-86
2021/04/03 04:16:26;;;;;;;45.33;29.13;;;;;;;3.07;76.23;98568.77;114007;1199;64481;-87
2021/04/03 04:18:52;;;;;;;48.57;32.33;;;;;;;3.06;76.29;98574.96;113963;1200;64452;-88
2021/04/03 04:21:19;;;;;;;43.95;29.75;;;;;;;3.03;76.74;98572.47;114049;1200;64317;-89
2021/04/03 04:23:47;;;;;;;48.53;32.23;;;;;;;3.00;76.53;98572.61;114120;1199;64269;-87
2021/04/03 04:26:13;;;;;;;43.33;28.17;;;;;;;2.98;76.80;98576.22;113998;1199;64381;-86
2021/04/03 04:28:40;;;;;;;46.27;29.80;;;;;;;2.93;76.59;98589.58;114076;1200;64486;-85
2021/04/03 04:31:06;;;;;;;44.87;29.50;;;;;;;2.90;76.59;98579.19;114106;1199;64451;-86
2021/04/03 04:33:33;;;;;;;44.03;29.63;;;;;;;2.90;76.55;98579.19;114146;1200;64455;-85
2021/04/03 04:36:01;;;;;;;43.90;30.20;;;;;;;2.92;76.50;98582.58;114141;1199;64378;-86
2021/04/03 04:38:28;;;;;;;42.50;29.00;;;;;;;2.94;76.67;98575.48;113967;1199;64413;-86
2021/04/03 04:40:54;;;;;;;44.03;29.83;;;;;;;2.98;76.73;98577.08;113933;1199;64364;-87
2021/04/03 04:43:22;;;;;;;44.70;30.65;;;;;;;3.14;76.48;98582.53;114068;1199;64528;-86
2021/04/03 04:45:49;;;;;;;46.77;32.47;;;;;;;3.35;76.13;98583.38;113964;1199;64502;-85
2021/04/03 04:48:15;;;;;;;48.03;33.73;;;;;;;3.45;75.97;98587.31;114031;1199;64359;-85
2021/04/03 04:50:42;;;;;;;46.60;31.25;;;;;;;3.53;76.20;98589.61;114187;1199;64417;-86
2021/04/03 04:53:08;;;;;;;43.17;29.27;;;;;;;3.76;75.48;98582.42;113950;1200;64387;-86
2021/04/03 04:55:35;;;;;;;39.77;26.67;;;;;;;4.02;75.26;98581.22;113866;1199;64528;-85
2021/04/03 04:58:03;;;;;;;38.40;27.00;;;;;;;4.31;74.73;98588.59;113949;1199;64384;-84
2021/04/03 05:00:29;;;;;;;39.23;27.60;;;;;;;4.60;74.01;98595.09;113869;1199;64505;-85
2021/04/03 05:02:56;;;;;;;38.03;26.80;;;;;;;4.83;73.71;98588.67;113850;1200;64892;-85
2021/04/03 05:05:23;;;;;;;35.05;26.40;;;;;;;5.05;73.52;98592.87;113902;1199;64356;-85
2021/04/03 05:07:49;;;;;;;37.77;27.40;;;;;;;5.30;73.08;98592.48;113895;1200;64432;-86
2021/04/03 05:10:17;;;;;;;35.40;25.47;;;;;;;5.41;72.77;98602.48;113918;1199;64387;-86
2021/04/03 05:12:43;;;;;;;36.23;27.23;;;;;;;5.37;72.62;98612.38;113970;1200;64516;-86
2021/04/03 05:15:10;;;;;;;38.20;26.10;;;;;;;5.32;72.56;98614.39;113903;1199;64403;-86
2021/04/03 05:17:37;;;;;;;39.70;25.67;;;;;;;5.24;72.49;98619.22;113867;1200;64365;-86
2021/04/03 05:20:04;;;;;;;33.83;24.43;;;;;;;5.24;72.86;98617.43;113945;1199;64484;-86
2021/04/03 05:22:30;;;;;;;31.37;23.53;;;;;;;5.31;72.87;98633.80;114024;1200;64419;-88
2021/04/03 05:24:57;;;;;;;34.30;25.05;;;;;;;5.31;72.87;98628.52;114051;1200;64396;-87
2021/04/03 05:27:23;;;;;;;31.23;24.43;;;;;;;5.32;72.98;98627.61;114076;1199;64336;-87
2021/04/03 05:29:50;;;;;;;35.77;23.93;;;;;;;5.25;72.60;98632.34;114072;1199;64378;-87
2021/04/03 05:32:16;;;;;;;34.43;25.30;;;;;;;5.15;72.78;98635.52;114103;1199;64818;-84
2021/04/03 05:34:43;;;;;;;31.50;23.20;;;;;;;5.08;73.18;98639.40;113993;1199;64461;-84
2021/04/03 05:37:10;;;;;;;32.55;24.90;;;;;;;5.02;73.26;98646.70;113974;1199;64318;-84
2021/04/03 05:39:36;;;;;;;33.55;24.95;;;;;;;4.98;73.34;98642.52;114049;1200;64445;-85
2021/04/03 05:42:04;;;;;;;31.73;23.77;;;;;;;4.97;73.61;98645.22;113982;1200;64304;-85
2021/04/03 05:44:32;;;;;;;31.93;23.73;;;;;;;4.93;73.46;98648.96;114065;1200;64369;-86
2021/04/03 05:46:59;;;;;;;33.27;23.43;;;;;;;4.93;73.81;98657.73;114356;1199;64449;-87
2021/04/03 05:49:26;;;;;;;34.37;24.73;;;;;;;4.93;73.76;98651.60;114382;1200;64430;-87
2021/04/03 05:51:54;;;;;;;32.73;25.43;;;;;;;4.91;73.82;98656.09;114140;1200;64346;-87
2021/04/03 05:54:21;;;;;;;34.03;25.43;;;;;;;4.84;74.02;98656.41;114199;1200;64420;-87
2021/04/03 05:56:47;;;;;;;36.85;26.80;;;;;;;4.81;74.06;98663.61;114274;1199;64407;-87
2021/04/03 05:59:14;;;;;;;35.20;26.65;;;;;;;4.79;74.16;98660.17;114306;1199;64378;-88
2021/04/03 06:01:40;;;;;;;33.77;24.70;;;;;;;4.74;74.42;98662.19;114392;1199;64295;-86
2021/04/03 06:04:08;;;;;;;29.37;23.57;;;;;;;4.67;74.63;98653.72;114374;1199;64410;-87
2021/04/03 06:06:35;;;;;;;28.50;23.10;;;;;;;4.67;75.15;98661.64;114405;1199;64368;-85
2021/04/03 06:09:02;;;;;;;31.80;23.73;;;;;;;4.64;75.20;98663.59;114213;1199;64410;-87
2021/04/03 06:11:28;;;;;;;30.13;23.97;;;;;;;4.58;75.62;98657.67;114286;1199;64295;-86
2021/04/03 06:14:00;;;;;;;31.55;24.30;;;;;;;4.56;75.91;98663.95;114119;1199;64413;-86
2021/04/03 06:16:38;;;;;;;25.90;22.35;;;;;;;4.53;76.32;98672.87;113984;1199;64423;-85
2021/04/03 06:19:24;;;;;;;26.37;21.67;;;;;;;4.45;77.04;98667.10;114117;1199;64529;-85
2021/04/03 06:21:54;;;;;;;22.30;19.90;;;;;;;4.36;76.59;98675.44;114268;1199;64449;-85
2021/04/03 06:24:24;;;;;;;20.23;18.00;;;;;;;4.29;77.26;98680.16;114119;1200;64301;-85
2021/04/03 06:27:06;;;;;;;21.07;17.97;;;;;;;4.24;76.94;98692.70;114143;1199;64359;-87
2021/04/03 06:29:43;;;;;;;20.47;18.27;;;;;;;4.13;77.50;98687.04;114453;1199;64378;-88
2021/04/03 06:32:23;;;;;;;19.20;17.20;;;;;;;4.00;77.70;98694.64;114675;1199;64359;-88
2021/04/03 06:34:51;;;;;;;17.63;15.70;;;;;;;3.90;78.27;98703.92;114711;1200;64420;-89
2021/04/03 06:37:28;;;;;;;18.17;15.90;;;;;;;3.81;78.22;98696.41;114622;1199;64404;-88
2021/04/03 06:40:04;;;;;;;15.80;14.10;;;;;;;3.79;77.97;98706.15;114649;1199;64362;-89
2021/04/03 06:42:58;;;;;;;16.00;14.30;;;;;;;3.82;78.53;98703.38;114805;1200;64445;-90
2021/04/03 06:45:30;;;;;;;17.07;15.30;;;;;;;3.83;77.99;98708.59;114590;1199;64560;-90
2021/04/03 06:48:03;;;;;;;16.10;14.50;;;;;;;3.89;78.24;98710.09;114680;1199;64378;-90
2021/04/03 06:50:55;;;;;;;16.93;14.63;;;;;;;3.90;78.48;98719.73;114569;1199;64403;-90
2021/04/03 06:53:22;;;;;;;19.47;17.47;;;;;;;3.89;78.19;98718.00;114330;1198;64471;-89
2021/04/03 06:55:51;;;;;;;19.97;17.93;;;;;;;3.93;78.04;98714.33;114122;1199;64358;-89
2021/04/03 06:58:17;;;;;;;18.10;16.27;;;;;;;4.02;78.11;98715.69;114339;1199;64362;-91
2021/04/03 07:00:44;;;;;;;17.30;15.50;;;;;;;4.09;78.12;98717.98;114353;1200;64544;-92
2021/04/03 07:03:20;;;;;;;20.00;17.90;;;;;;;4.16;78.25;98716.78;114535;1199;64442;-92
2021/04/03 07:05:47;;;;;;;19.00;17.10;;;;;;;4.33;78.12;98717.79;114221;1199;64419;-92
2021/04/03 07:08:14;;;;;;;17.73;15.97;;;;;;;4.43;78.12;98727.00;114136;1199;64442;-92
2021/04/03 07:10:41;;;;;;;18.33;16.43;;;;;;;4.46;77.96;98729.48;114125;1200;64458;-89
2021/04/03 07:13:13;;;;;;;20.70;18.60;;;;;;;4.50;77.84;98724.91;114052;1199;64385;-91
2021/04/03 07:15:40;;;;;;;20.97;18.73;;;;;;;4.59;77.99;98722.70;114187;1199;64365;-88
2021/04/03 07:18:09;;;;;;;21.40;19.15;;;;;;;4.82;78.15;98731.34;114169;1200;64736;-90
2021/04/03 07:20:36;;;;;;;21.50;19.10;;;;;;;5.00;77.47;98732.21;114042;1199;64454;-89
2021/04/03 07:23:09;;;;;;;19.37;17.13;;;;;;;5.06;77.44;98724.02;113994;1199;64471;-89
2021/04/03 07:25:40;;;;;;;20.95;18.85;;;;;;;5.08;77.20;98734.48;114038;1200;64455;-90
2021/04/03 07:28:07;;;;;;;20.60;18.40;;;;;;;5.12;77.20;98733.41;114107;1199;64480;-89
2021/04/03 07:30:40;;;;;;;21.40;19.30;;;;;;;5.11;77.42;98735.21;114066;1199;64362;-91
2021/04/03 07:33:22;;;;;;;23.95;21.40;;;;;;;5.09;77.43;98742.34;114214;1200;64394;-92
2021/04/03 07:36:04;;;;;;;24.65;21.40;;;;;;;5.15;77.37;98746.47;114885;1199;64420;-91
2021/04/03 07:38:36;;;;;;;25.37;22.13;;;;;;;5.11;77.34;98748.41;114204;1200;64458;-90
2021/04/03 07:41:12;;;;;;;25.10;22.40;;;;;;;5.18;77.40;98757.73;114019;1199;64391;-89
2021/04/03 07:43:43;;;;;;;27.20;23.03;;;;;;;5.25;77.33;98753.86;114574;1199;64291;-92
2021/04/03 07:46:25;;;;;;;23.97;21.33;;;;;;;5.37;77.13;98759.47;114420;1200;64311;-91
2021/04/03 07:48:57;;;;;;;30.10;23.20;;;;;;;5.54;76.81;98756.85;114521;1199;64422;-92
2021/04/03 07:51:24;;;;;;;26.60;22.63;;;;;;;5.61;76.54;98752.98;114292;1200;64490;-90
2021/04/03 07:53:52;;;;;;;25.40;21.80;;;;;;;5.56;76.56;98764.72;114185;1200;64336;-90
2021/04/03 07:56:21;;;;;;;30.90;25.25;;;;;;;5.42;76.79;98771.52;114437;1199;64394;-92
2021/04/03 07:58:49;;;;;;;30.50;26.27;;;;;;;5.29;77.01;98770.41;114175;1199;64391;-90
2021/04/03 08:01:18;;;;;;;21.60;19.10;;;;;;;5.21;76.70;98770.81;114368;1199;64321;-92
2021/04/03 08:04:01;;;;;;;20.45;18.25;;;;;;;5.24;76.99;98765.38;114751;1199;64420;-91
2021/04/03 08:06:29;;;;;;;21.30;19.05;;;;;;;5.46;76.64;98769.59;114621;1199;64429;-90
2021/04/03 08:08:57;;;;;;;22.60;20.27;;;;;;;5.83;76.28;98767.74;114273;1200;64254;-91
2021/04/03 08:11:24;;;;;;;23.10;20.57;;;;;;;6.14;75.87;98761.75;114333;1198;64384;-93
2021/04/03 08:13:53;;;;;;;22.30;19.00;;;;;;;6.29;75.25;98768.89;115270;1199;64436;-93
2021/04/03 08:16:21;;;;;;;21.53;19.43;;;;;;;6.49;75.28;98764.30;114727;1200;64336;-89
2021/04/03 08:18:51;;;;;;;25.05;22.55;;;;;;;6.62;75.17;98772.44;113978;1199;64365;-85
2021/04/03 08:21:19;;;;;;;25.70;22.97;;;;;;;6.67;74.81;98773.05;114545;1199;64374;-91
2021/04/03 08:23:49;;;;;;;22.15;19.60;;;;;;;6.62;74.26;98768.00;114169;1200;64435;-92
2021/04/03 08:26:36;;;;;;;20.55;18.35;;;;;;;6.55;73.95;98762.16;114141;1200;64628;-91
2021/04/03 08:29:03;;;;;;;20.15;17.15;;;;;;;6.46;73.23;98764.48;114159;1199;64518;-92
2021/04/03 08:31:33;;;;;;;23.35;20.25;;;;;;;6.37;73.70;98766.68;113993;1200;64375;-91
2021/04/03 08:34:05;;;;;;;24.53;21.90;;;;;;;6.29;73.77;98768.89;114089;1200;64403;-91
2021/04/03 08:36:33;;;;;;;24.87;20.93;;;;;;;6.26;73.42;98782.25;114048;1199;64506;-90
2021/04/03 08:39:09;;;;;;;26.57;20.97;;;;;;;6.12;73.92;98769.76;114046;1200;64410;-91
2021/04/03 08:41:39;;;;;;;21.73;19.37;;;;;;;5.95;73.41;98777.73;114138;1199;64666;-90
2021/04/03 08:44:28;;;;;;;20.80;18.37;;;;;;;5.81;73.93;98780.18;113946;1200;64311;-91
2021/04/03 08:47:04;;;;;;;21.23;19.00;;;;;;;5.71;74.03;98785.95;114084;1200;64375;-90
2021/04/03 08:49:37;;;;;;;29.85;22.15;;;;;;;5.70;74.08;98780.73;114023;1199;64343;-89
2021/04/03 08:52:06;;;;;;;28.23;21.37;;;;;;;5.79;73.99;98782.89;114019;1199;64528;-90
2021/04/03 08:54:41;;;;;;;24.65;19.05;;;;;;;5.98;73.84;98785.50;114075;1200;64378;-90
2021/04/03 08:57:29;;;;;;;27.03;19.70;;;;;;;6.19;73.82;98790.59;113974;1199;64446;-88
2021/04/03 09:00:00;;;;;;;24.73;20.93;;;;;;;6.47;73.40;98777.61;115099;1199;63224;-89
2021/04/03 09:02:28;;;;;;;24.13;19.23;;;;;;;6.75;71.92;98778.78;114333;1199;64391;-91
2021/04/03 09:04:55;;;;;;;23.57;20.17;;;;;;;6.91;71.18;98779.63;114567;1199;64254;-90
2021/04/03 09:07:36;;;;;;;22.65;19.20;;;;;;;7.04;70.42;98778.01;115132;1199;64487;-90
2021/04/03 09:10:07;;;;;;;23.33;18.97;;;;;;;7.18;70.30;98782.52;114197;1199;64393;-89
2021/04/03 09:12:34;;;;;;;21.70;16.60;;;;;;;7.44;69.51;98781.05;113936;1200;64521;-90
2021/04/03 09:15:02;;;;;;;20.75;18.45;;;;;;;7.63;68.68;98780.83;113864;1199;64484;-89
2021/04/03 09:17:29;;;;;;;22.10;18.25;;;;;;;7.65;68.53;98786.05;114075;1199;64375;-89
2021/04/03 09:20:05;;;;;;;20.55;16.75;;;;;;;7.52;68.08;98785.91;114003;1199;64311;-89
2021/04/03 09:22:40;;;;;;;20.53;17.30;;;;;;;7.13;67.70;98786.38;113947;1200;64480;-90
2021/04/03 09:25:08;;;;;;;15.77;12.30;;;;;;;6.58;68.05;98811.45;114121;1199;64362;-90
2021/04/03 09:27:36;;;;;;;16.53;12.40;;;;;;;6.18;68.80;98812.70;114075;1199;64410;-90
2021/04/03 09:30:09;;;;;;;16.65;11.90;;;;;;;5.86;69.44;98821.32;113954;1199;64446;-85
2021/04/03 09:32:40;;;;;;;17.55;11.40;;;;;;;5.64;69.80;98820.70;113873;1200;64544;-86
2021/04/03 09:35:08;;;;;;;13.30;10.03;;;;;;;5.45;70.49;98818.96;113849;1199;64394;-84
2021/04/03 09:37:36;;;;;;;12.80;9.23;;;;;;;5.33;70.36;98816.91;113669;1199;64397;-84
2021/04/03 09:40:06;;;;;;;18.40;11.70;;;;;;;5.28;70.54;98814.48;113644;1199;64371;-85
2021/04/03 09:42:34;;;;;;;16.25;11.70;;;;;;;5.40;71.02;98817.48;113668;1200;64513;-83
2021/04/03 09:45:05;;;;;;;16.30;11.90;;;;;;;5.55;70.63;98808.77;113614;1200;64535;-84
2021/04/03 09:47:32;;;;;;;22.80;15.50;;;;;;;5.78;70.11;98807.63;113602;1200;64400;-84
2021/04/03 09:49:58;;;;;;;18.87;15.63;;;;;;;6.04;70.64;98813.42;113642;1199;64337;-84
2021/04/03 09:52:26;;;;;;;19.47;15.30;;;;;;;6.33;69.59;98811.91;113647;1200;64387;-84
2021/04/03 09:54:53;;;;;;;19.00;15.00;;;;;;;6.67;69.45;98808.33;113668;1200;64556;-84
2021/04/03 09:57:20;;;;;;;21.25;16.60;;;;;;;7.11;68.90;98809.45;113648;1199;64448;-85
2021/04/03 09:59:46;;;;;;;16.85;13.55;;;;;;;7.45;68.70;98809.28;113727;1199;64381;-82
2021/04/03 10:02:13;;;;;;;17.30;14.63;;;;;;;7.73;68.14;98820.94;113670;1200;64346;-83
2021/04/03 10:04:40;;;;;;;27.90;20.10;;;;;;;7.84;67.68;98821.16;113714;1200;64372;-84
2021/04/03 10:07:07;;;;;;;27.37;22.60;;;;;;;7.79;66.93;98819.72;113729;1200;64378;-84
2021/04/03 10:09:34;;;;;;;23.90;20.10;;;;;;;7.77;67.24;98821.64;113727;1199;64497;-84
2021/04/03 10:12:00;;;;;;;22.93;17.40;;;;;;;7.76;66.94;98822.56;113782;1199;64467;-84
2021/04/03 10:14:27;;;;;;;21.30;15.50;;;;;;;7.78;66.92;98828.64;113776;1200;64311;-84
2021/04/03 10:16:54;;;;;;;18.93;14.83;;;;;;;7.88;66.54;98827.16;113721;1200;64356;-83
2021/04/03 10:19:20;;;;;;;18.87;14.23;;;;;;;7.94;64.95;98812.67;113656;1200;64423;-83
2021/04/03 10:21:47;;;;;;;18.63;14.17;;;;;;;8.03;64.73;98814.77;113676;1200;64470;-85
2021/04/03 10:24:14;;;;;;;16.60;13.43;;;;;;;8.11;64.81;98818.70;113962;1199;64362;-84
2021/04/03 10:26:41;;;;;;;17.33;14.37;;;;;;;8.19;64.23;98825.33;113682;1200;64432;-84
2021/04/03 10:29:08;;;;;;;18.20;15.70;;;;;;;8.20;65.15;98829.70;113668;1200;64416;-85
2021/04/03 10:31:35;;;;;;;20.53;15.90;;;;;;;8.45;64.54;98826.44;113603;1200;64420;-85
2021/04/03 10:34:01;;;;;;;18.47;14.23;;;;;;;8.51;63.10;98802.19;113709;1199;64522;-85
2021/04/03 10:36:28;;;;;;;20.87;14.43;;;;;;;8.43;63.85;98807.11;113717;1200;64487;-85
2021/04/03 10:38:55;;;;;;;19.20;15.50;;;;;;;8.25;64.28;98823.17;113727;1200;64471;-84
2021/04/03 10:41:21;;;;;;;22.00;17.77;;;;;;;8.38;63.94;98809.16;113673;1199;64362;-85
2021/04/03 10:43:48;;;;;;;24.53;19.67;;;;;;;8.49;63.81;98826.17;113645;1199;64400;-84
2021/04/03 10:46:15;;;;;;;20.60;18.40;;;;;;;8.48;62.99;98827.13;113805;1200;64477;-84
2021/04/03 10:48:41;;;;;;;19.67;17.57;;;;;;;8.42;63.07;98814.20;113632;1199;64335;-83
2021/04/03 10:51:08;;;;;;;21.90;18.67;;;;;;;8.48;64.43;98820.97;113681;1199;64362;-84
2021/04/03 10:53:34;;;;;;;23.30;17.90;;;;;;;8.46;63.91;98831.67;113589;1199;64362;-85
2021/04/03 10:56:01;;;;;;;16.20;14.25;;;;;;;8.14;63.82;98839.74;113802;1199;64391;-82
2021/04/03 10:58:27;;;;;;;15.57;14.00;;;;;;;7.69;64.52;98837.99;113957;1199;64499;-85
2021/04/03 11:00:54;;;;;;;14.67;13.07;;;;;;;7.35;65.24;98839.91;113701;1199;64320;-84
2021/04/03 11:03:20;;;;;;;10.63;9.57;;;;;;;7.16;65.93;98853.34;113709;1199;64417;-85
2021/04/03 11:05:47;;;;;;;9.63;8.70;;;;;;;7.01;66.06;98852.38;113701;1200;64406;-85
2021/04/03 11:08:14;;;;;;;10.15;8.40;;;;;;;6.93;66.92;98840.50;113788;1199;64372;-86
2021/04/03 11:10:40;;;;;;;10.07;7.80;;;;;;;6.78;67.11;98858.06;113820;1199;64784;-85
2021/04/03 11:13:07;;;;;;;8.30;7.43;;;;;;;6.77;67.64;98861.66;113761;1199;64486;-84
2021/04/03 11:15:34;;;;;;;9.63;7.87;;;;;;;6.99;67.86;98861.34;113658;1199;64401;-85
2021/04/03 11:18:00;;;;;;;21.57;14.20;;;;;;;7.09;67.60;98867.86;113758;1200;64377;-85
2021/04/03 11:20:27;;;;;;;40.23;21.80;;;;;;;7.28;67.77;98865.04;113675;1199;64526;-85
2021/04/03 11:22:54;;;;;;;9.25;8.30;;;;;;;7.46;67.06;98871.12;113799;1200;64505;-85
2021/04/03 11:25:20;;;;;;;8.50;7.30;;;;;;;7.50;67.09;98879.74;113820;1200;64576;-85
2021/04/03 11:27:47;;;;;;;7.67;6.93;;;;;;;7.54;66.79;98882.14;113703;1200;64416;-84